TAM3672 SBGL-SBSV
Flight info
| Callsign | TAM3672 |
|---|---|
| Flight time | 1h 41m |
| Altitude | 37000 |
| Route | IMBAP UZ42 SIRAP DCT OSAGU DCT ZUMBA |
| Aircraft | A320/M-SDE3FGHIRWY/LB1 |
Departure
| Time | 2026-04-29 19:57 |
|---|---|
| Airport | Rio Galeão – Tom Jobim International Airport (SBGL) |
Arrival
| Time | 2026-04-29 21:39 |
|---|---|
| Airport | Deputado Luiz Eduardo Magalhães International Airport (SBSV) |
| Time | Latitude | Longitude | Altitude | Speed | Heading |
|---|---|---|---|---|---|
| 2026-04-29 19:39 | -22.81592 | -43.24690 | 22 ft | 0 kts | 26° |
| 2026-04-29 19:46 | -22.81599 | -43.24694 | 22 ft | 4 kts | 24° |
| 2026-04-29 19:46 | -22.81625 | -43.24704 | 23 ft | 4 kts | 7° |
| 2026-04-29 19:47 | -22.81649 | -43.24701 | 24 ft | 4 kts | 320° |
| 2026-04-29 19:47 | -22.81655 | -43.24695 | 23 ft | 0 kts | 304° |
| 2026-04-29 19:49 | -22.81630 | -43.24734 | 23 ft | 9 kts | 304° |
| 2026-04-29 19:50 | -22.81595 | -43.24788 | 22 ft | 8 kts | 305° |
| 2026-04-29 19:50 | -22.81565 | -43.24834 | 21 ft | 7 kts | 305° |
| 2026-04-29 19:50 | -22.81536 | -43.24865 | 21 ft | 5 kts | 319° |
| 2026-04-29 19:50 | -22.81514 | -43.24893 | 21 ft | 6 kts | 303° |
| 2026-04-29 19:51 | -22.81465 | -43.24983 | 21 ft | 16 kts | 300° |
| 2026-04-29 19:51 | -22.81420 | -43.25082 | 21 ft | 14 kts | 276° |
| 2026-04-29 19:51 | -22.81475 | -43.25152 | 23 ft | 12 kts | 216° |
| 2026-04-29 19:51 | -22.81536 | -43.25199 | 23 ft | 10 kts | 216° |
| 2026-04-29 19:52 | -22.81557 | -43.25260 | 21 ft | 12 kts | 287° |
| 2026-04-29 19:52 | -22.81493 | -43.25361 | 22 ft | 16 kts | 306° |
| 2026-04-29 19:52 | -22.81431 | -43.25455 | 21 ft | 14 kts | 305° |
| 2026-04-29 19:52 | -22.81375 | -43.25539 | 21 ft | 13 kts | 306° |
| 2026-04-29 19:53 | -22.81324 | -43.25616 | 23 ft | 15 kts | 306° |
| 2026-04-29 19:53 | -22.81250 | -43.25727 | 22 ft | 18 kts | 306° |
| 2026-04-29 19:53 | -22.81181 | -43.25832 | 21 ft | 16 kts | 305° |
| 2026-04-29 19:53 | -22.81115 | -43.25919 | 22 ft | 14 kts | 330° |
| 2026-04-29 19:54 | -22.80962 | -43.25833 | 24 ft | 20 kts | 36° |
| 2026-04-29 19:54 | -22.80842 | -43.25739 | 27 ft | 22 kts | 35° |
| 2026-04-29 19:54 | -22.80750 | -43.25669 | 29 ft | 14 kts | 35° |
| 2026-04-29 19:55 | -22.80677 | -43.25615 | 29 ft | 11 kts | 36° |
| 2026-04-29 19:55 | -22.80605 | -43.25558 | 29 ft | 18 kts | 36° |
| 2026-04-29 19:55 | -22.80499 | -43.25554 | 31 ft | 15 kts | 330° |
| 2026-04-29 19:55 | -22.80409 | -43.25612 | 29 ft | 15 kts | 346° |
| 2026-04-29 19:56 | -22.80322 | -43.25572 | 26 ft | 15 kts | 41° |
| 2026-04-29 19:56 | -22.80240 | -43.25502 | 25 ft | 15 kts | 36° |
| 2026-04-29 19:56 | -22.80169 | -43.25435 | 25 ft | 13 kts | 70° |
| 2026-04-29 19:56 | -22.80143 | -43.25334 | 28 ft | 39 kts | 74° |
| 2026-04-29 19:57 | -22.79937 | -43.24535 | 33 ft | 121 kts | 74° |
| 2026-04-29 19:57 | -22.79759 | -43.23857 | 28 ft | 153 kts | 73° |
| 2026-04-29 19:57 | -22.79444 | -43.22647 | 299 ft | 171 kts | 77° |
| 2026-04-29 19:57 | -22.79169 | -43.21394 | 923 ft | 170 kts | 79° |
| 2026-04-29 19:58 | -22.78913 | -43.20121 | 1469 ft | 178 kts | 78° |
| 2026-04-29 19:58 | -22.78631 | -43.18725 | 1750 ft | 200 kts | 78° |
| 2026-04-29 19:58 | -22.78314 | -43.17175 | 1995 ft | 225 kts | 78° |
| 2026-04-29 19:58 | -22.77950 | -43.15433 | 2314 ft | 248 kts | 77° |
| 2026-04-29 19:59 | -22.77546 | -43.13543 | 2866 ft | 262 kts | 76° |
| 2026-04-29 19:59 | -22.77130 | -43.11620 | 3649 ft | 267 kts | 76° |
| 2026-04-29 19:59 | -22.76700 | -43.09656 | 4436 ft | 271 kts | 75° |
| 2026-04-29 19:59 | -22.76258 | -43.07649 | 5222 ft | 275 kts | 75° |
| 2026-04-29 20:00 | -22.75732 | -43.05640 | 6024 ft | 277 kts | 65° |
| 2026-04-29 20:00 | -22.74723 | -43.03898 | 6747 ft | 279 kts | 46° |
| 2026-04-29 20:00 | -22.73200 | -43.02581 | 7485 ft | 282 kts | 27° |
| 2026-04-29 20:00 | -22.71333 | -43.01904 | 8221 ft | 284 kts | 10° |
| 2026-04-29 20:01 | -22.69404 | -43.01492 | 8969 ft | 288 kts | 12° |
| 2026-04-29 20:01 | -22.67431 | -43.01007 | 9688 ft | 292 kts | 13° |
| 2026-04-29 20:01 | -22.65429 | -43.00489 | 10289 ft | 301 kts | 13° |
| 2026-04-29 20:01 | -22.63307 | -42.99936 | 10481 ft | 324 kts | 13° |
| 2026-04-29 20:02 | -22.61084 | -42.99367 | 10844 ft | 337 kts | 12° |
| 2026-04-29 20:02 | -22.58783 | -42.98786 | 11472 ft | 341 kts | 12° |
| 2026-04-29 20:02 | -22.56450 | -42.98203 | 12148 ft | 343 kts | 12° |
| 2026-04-29 20:02 | -22.54899 | -42.97817 | 12600 ft | 345 kts | 11° |
| 2026-04-29 20:03 | -22.51770 | -42.97044 | 13490 ft | 347 kts | 11° |
| 2026-04-29 20:03 | -22.49430 | -42.96467 | 14083 ft | 349 kts | 11° |
| 2026-04-29 20:03 | -22.47048 | -42.95878 | 14583 ft | 352 kts | 11° |
| 2026-04-29 20:03 | -22.44649 | -42.95283 | 15116 ft | 355 kts | 11° |
| 2026-04-29 20:04 | -22.42234 | -42.94683 | 15651 ft | 357 kts | 10° |
| 2026-04-29 20:04 | -22.39802 | -42.94079 | 16180 ft | 359 kts | 10° |
| 2026-04-29 20:04 | -22.37377 | -42.93480 | 16689 ft | 362 kts | 10° |
| 2026-04-29 20:04 | -22.34905 | -42.92871 | 17200 ft | 365 kts | 9° |
| 2026-04-29 20:05 | -22.32370 | -42.92477 | 17704 ft | 365 kts | 359° |
| 2026-04-29 20:05 | -22.29870 | -42.92626 | 17992 ft | 364 kts | 349° |
| 2026-04-29 20:05 | -22.27349 | -42.93043 | 18034 ft | 363 kts | 349° |
| 2026-04-29 20:05 | -22.24849 | -42.93464 | 18034 ft | 363 kts | 349° |
| 2026-04-29 20:06 | -22.22382 | -42.93880 | 18043 ft | 363 kts | 349° |
| 2026-04-29 20:06 | -22.19878 | -42.94299 | 18038 ft | 363 kts | 350° |
| 2026-04-29 20:06 | -22.17339 | -42.94384 | 18037 ft | 366 kts | 3° |
| 2026-04-29 20:06 | -22.14847 | -42.93820 | 18082 ft | 373 kts | 17° |
| 2026-04-29 20:07 | -22.12506 | -42.92595 | 18532 ft | 380 kts | 28° |
| 2026-04-29 20:07 | -22.10268 | -42.91046 | 18961 ft | 383 kts | 29° |
| 2026-04-29 20:07 | -22.08012 | -42.89492 | 19375 ft | 386 kts | 28° |
| 2026-04-29 20:07 | -22.05721 | -42.87920 | 19779 ft | 389 kts | 29° |
| 2026-04-29 20:08 | -22.03457 | -42.86365 | 20180 ft | 391 kts | 28° |
| 2026-04-29 20:08 | -22.01898 | -42.85291 | 20450 ft | 393 kts | 29° |
| 2026-04-29 20:08 | -21.98821 | -42.83162 | 20970 ft | 397 kts | 29° |
| 2026-04-29 20:08 | -21.96508 | -42.81561 | 21367 ft | 400 kts | 28° |
| 2026-04-29 20:09 | -21.94149 | -42.79931 | 21746 ft | 403 kts | 28° |
| 2026-04-29 20:09 | -21.91775 | -42.78293 | 22144 ft | 406 kts | 28° |
| 2026-04-29 20:09 | -21.89405 | -42.76657 | 22526 ft | 409 kts | 28° |
| 2026-04-29 20:09 | -21.86998 | -42.74993 | 22885 ft | 411 kts | 28° |
| 2026-04-29 20:10 | -21.84577 | -42.73318 | 23263 ft | 414 kts | 28° |
| 2026-04-29 20:10 | -21.82139 | -42.71632 | 23629 ft | 417 kts | 28° |
| 2026-04-29 20:10 | -21.79724 | -42.69963 | 23929 ft | 419 kts | 28° |
| 2026-04-29 20:10 | -21.77256 | -42.68260 | 24242 ft | 421 kts | 28° |
| 2026-04-29 20:11 | -21.74771 | -42.66547 | 24542 ft | 424 kts | 28° |
| 2026-04-29 20:11 | -21.72292 | -42.64842 | 24851 ft | 426 kts | 28° |
| 2026-04-29 20:11 | -21.69773 | -42.63114 | 25148 ft | 428 kts | 28° |
| 2026-04-29 20:11 | -21.67252 | -42.61381 | 25465 ft | 430 kts | 28° |
| 2026-04-29 20:12 | -21.64741 | -42.59656 | 25767 ft | 432 kts | 28° |
| 2026-04-29 20:12 | -21.62169 | -42.57927 | 26057 ft | 434 kts | 27° |
| 2026-04-29 20:12 | -21.59567 | -42.56321 | 26353 ft | 435 kts | 25° |
| 2026-04-29 20:12 | -21.56887 | -42.54774 | 26644 ft | 437 kts | 24° |
| 2026-04-29 20:13 | -21.54180 | -42.53269 | 26933 ft | 439 kts | 23° |
| 2026-04-29 20:13 | -21.51449 | -42.51766 | 27209 ft | 441 kts | 23° |
| 2026-04-29 20:13 | -21.48738 | -42.50261 | 27493 ft | 443 kts | 23° |
| 2026-04-29 20:13 | -21.46012 | -42.48723 | 27761 ft | 446 kts | 24° |
| 2026-04-29 20:14 | -21.43260 | -42.47146 | 28031 ft | 448 kts | 24° |
| 2026-04-29 20:14 | -21.40500 | -42.45548 | 28312 ft | 450 kts | 24° |
| 2026-04-29 20:14 | -21.37764 | -42.43960 | 28582 ft | 453 kts | 25° |
| 2026-04-29 20:14 | -21.34986 | -42.42347 | 28847 ft | 455 kts | 24° |
| 2026-04-29 20:15 | -21.32172 | -42.40719 | 29109 ft | 457 kts | 24° |
| 2026-04-29 20:15 | -21.29401 | -42.39125 | 29361 ft | 458 kts | 24° |
| 2026-04-29 20:15 | -21.26568 | -42.37502 | 29605 ft | 461 kts | 24° |
| 2026-04-29 20:15 | -21.23725 | -42.35874 | 29834 ft | 463 kts | 25° |
| 2026-04-29 20:16 | -21.20870 | -42.34239 | 30043 ft | 466 kts | 25° |
| 2026-04-29 20:16 | -21.18034 | -42.32615 | 30256 ft | 468 kts | 25° |
| 2026-04-29 20:16 | -21.15155 | -42.30967 | 30473 ft | 469 kts | 25° |
| 2026-04-29 20:16 | -21.12268 | -42.29316 | 30696 ft | 470 kts | 25° |
| 2026-04-29 20:17 | -21.09364 | -42.27652 | 30915 ft | 472 kts | 25° |
| 2026-04-29 20:17 | -21.06462 | -42.25987 | 31169 ft | 472 kts | 25° |
| 2026-04-29 20:17 | -21.03598 | -42.24345 | 31506 ft | 471 kts | 25° |
| 2026-04-29 20:17 | -21.00702 | -42.22685 | 31828 ft | 470 kts | 25° |
| 2026-04-29 20:18 | -20.97813 | -42.21032 | 32132 ft | 469 kts | 25° |
| 2026-04-29 20:18 | -20.94935 | -42.19387 | 32462 ft | 468 kts | 25° |
| 2026-04-29 20:18 | -20.92096 | -42.17766 | 32773 ft | 467 kts | 25° |
| 2026-04-29 20:18 | -20.89229 | -42.16128 | 33092 ft | 466 kts | 25° |
| 2026-04-29 20:19 | -20.86360 | -42.14490 | 33412 ft | 465 kts | 25° |
| 2026-04-29 20:19 | -20.83494 | -42.12858 | 33707 ft | 465 kts | 25° |
| 2026-04-29 20:19 | -20.80679 | -42.11254 | 34025 ft | 464 kts | 25° |
| 2026-04-29 20:19 | -20.77829 | -42.09631 | 34310 ft | 463 kts | 25° |
| 2026-04-29 20:20 | -20.74983 | -42.08011 | 34557 ft | 463 kts | 25° |
| 2026-04-29 20:20 | -20.72123 | -42.06384 | 34787 ft | 463 kts | 25° |
| 2026-04-29 20:20 | -20.69283 | -42.04769 | 35038 ft | 462 kts | 25° |
| 2026-04-29 20:20 | -20.66466 | -42.03169 | 35261 ft | 462 kts | 25° |
| 2026-04-29 20:21 | -20.63624 | -42.01553 | 35459 ft | 462 kts | 24° |
| 2026-04-29 20:21 | -20.60687 | -42.00167 | 35645 ft | 459 kts | 17° |
| 2026-04-29 20:21 | -20.57699 | -41.99035 | 35811 ft | 459 kts | 17° |
| 2026-04-29 20:21 | -20.54674 | -41.97897 | 36025 ft | 459 kts | 17° |
| 2026-04-29 20:22 | -20.51674 | -41.96774 | 36237 ft | 459 kts | 16° |
| 2026-04-29 20:22 | -20.48650 | -41.95645 | 36436 ft | 459 kts | 16° |
| 2026-04-29 20:22 | -20.45665 | -41.94528 | 36627 ft | 459 kts | 16° |
| 2026-04-29 20:22 | -20.42647 | -41.93395 | 36817 ft | 459 kts | 16° |
| 2026-04-29 20:23 | -20.39627 | -41.92260 | 37002 ft | 459 kts | 17° |
| 2026-04-29 20:23 | -20.36609 | -41.91125 | 37073 ft | 459 kts | 17° |
| 2026-04-29 20:23 | -20.30599 | -41.88868 | 37079 ft | 458 kts | 17° |
| 2026-04-29 20:24 | -20.24569 | -41.86605 | 37072 ft | 458 kts | 17° |
| 2026-04-29 20:24 | -20.18568 | -41.84356 | 37077 ft | 458 kts | 17° |
| 2026-04-29 20:25 | -20.12560 | -41.82104 | 37070 ft | 459 kts | 17° |
| 2026-04-29 20:25 | -20.06539 | -41.79851 | 37062 ft | 459 kts | 17° |
| 2026-04-29 20:26 | -20.00490 | -41.77592 | 37069 ft | 460 kts | 17° |
| 2026-04-29 20:26 | -19.94476 | -41.75352 | 37057 ft | 460 kts | 17° |
| 2026-04-29 20:27 | -19.89442 | -41.73475 | 37050 ft | 460 kts | 17° |
| 2026-04-29 20:27 | -19.82390 | -41.70841 | 37053 ft | 460 kts | 17° |
| 2026-04-29 20:28 | -19.76352 | -41.68594 | 37047 ft | 460 kts | 17° |
| 2026-04-29 20:28 | -19.70323 | -41.66347 | 37038 ft | 460 kts | 17° |
| 2026-04-29 20:29 | -19.64287 | -41.64107 | 37043 ft | 460 kts | 17° |
| 2026-04-29 20:29 | -19.58211 | -41.61852 | 37042 ft | 460 kts | 17° |
| 2026-04-29 20:30 | -19.52195 | -41.59614 | 37043 ft | 461 kts | 17° |
| 2026-04-29 20:30 | -19.46132 | -41.57364 | 37044 ft | 461 kts | 17° |
| 2026-04-29 20:31 | -19.40100 | -41.55123 | 37041 ft | 461 kts | 18° |
| 2026-04-29 20:31 | -19.34033 | -41.52875 | 37040 ft | 461 kts | 17° |
| 2026-04-29 20:32 | -19.27972 | -41.50633 | 37043 ft | 461 kts | 17° |
| 2026-04-29 20:32 | -19.22942 | -41.48775 | 37036 ft | 461 kts | 18° |
| 2026-04-29 20:33 | -19.15876 | -41.46168 | 37035 ft | 461 kts | 18° |
| 2026-04-29 20:33 | -19.09847 | -41.43933 | 37036 ft | 461 kts | 18° |
| 2026-04-29 20:34 | -19.03777 | -41.41688 | 37038 ft | 461 kts | 18° |
| 2026-04-29 20:34 | -18.97756 | -41.39472 | 37031 ft | 461 kts | 18° |
| 2026-04-29 20:35 | -18.91689 | -41.37244 | 37034 ft | 461 kts | 18° |
| 2026-04-29 20:35 | -18.85618 | -41.35005 | 37034 ft | 461 kts | 18° |
| 2026-04-29 20:36 | -18.79591 | -41.32789 | 37041 ft | 461 kts | 18° |
| 2026-04-29 20:36 | -18.73500 | -41.30552 | 37040 ft | 461 kts | 18° |
| 2026-04-29 20:37 | -18.67450 | -41.28327 | 37040 ft | 461 kts | 18° |
| 2026-04-29 20:37 | -18.61380 | -41.26095 | 37048 ft | 461 kts | 18° |
| 2026-04-29 20:38 | -18.55330 | -41.23881 | 37036 ft | 461 kts | 18° |
| 2026-04-29 20:38 | -18.49289 | -41.21677 | 37040 ft | 461 kts | 18° |
| 2026-04-29 20:39 | -18.43209 | -41.19442 | 37043 ft | 461 kts | 18° |
| 2026-04-29 20:39 | -18.37160 | -41.17224 | 37046 ft | 461 kts | 18° |
| 2026-04-29 20:40 | -18.31107 | -41.15019 | 37046 ft | 461 kts | 19° |
| 2026-04-29 20:40 | -18.25024 | -41.12793 | 37051 ft | 461 kts | 19° |
| 2026-04-29 20:41 | -18.18993 | -41.10595 | 37049 ft | 460 kts | 19° |
| 2026-04-29 20:41 | -18.12948 | -41.08382 | 37046 ft | 460 kts | 19° |
| 2026-04-29 20:42 | -18.06878 | -41.06169 | 37046 ft | 460 kts | 19° |
| 2026-04-29 20:42 | -18.00819 | -41.03969 | 37046 ft | 460 kts | 19° |
| 2026-04-29 20:43 | -17.94790 | -41.01780 | 37045 ft | 460 kts | 19° |
| 2026-04-29 20:43 | -17.88764 | -40.99513 | 37044 ft | 460 kts | 21° |
| 2026-04-29 20:44 | -17.82883 | -40.96889 | 37045 ft | 459 kts | 24° |
| 2026-04-29 20:44 | -17.77073 | -40.94144 | 37047 ft | 459 kts | 24° |
| 2026-04-29 20:45 | -17.71221 | -40.91463 | 37050 ft | 459 kts | 23° |
| 2026-04-29 20:45 | -17.65359 | -40.88850 | 37045 ft | 459 kts | 23° |
| 2026-04-29 20:46 | -17.60470 | -40.86673 | 37044 ft | 459 kts | 23° |
| 2026-04-29 20:46 | -17.54576 | -40.84039 | 37050 ft | 458 kts | 23° |
| 2026-04-29 20:47 | -17.48743 | -40.81432 | 37050 ft | 458 kts | 24° |
| 2026-04-29 20:47 | -17.42873 | -40.78800 | 37046 ft | 457 kts | 24° |
| 2026-04-29 20:48 | -17.37058 | -40.76202 | 37050 ft | 457 kts | 24° |
| 2026-04-29 20:48 | -17.31171 | -40.73580 | 37055 ft | 463 kts | 24° |
| 2026-04-29 20:49 | -17.25180 | -40.70906 | 37032 ft | 472 kts | 24° |
| 2026-04-29 20:49 | -17.19260 | -40.68266 | 37035 ft | 479 kts | 24° |
| 2026-04-29 20:50 | -17.12951 | -40.65460 | 37039 ft | 487 kts | 24° |
| 2026-04-29 20:50 | -17.06887 | -40.62763 | 37042 ft | 495 kts | 24° |
| 2026-04-29 20:51 | -17.00585 | -40.59953 | 37036 ft | 480 kts | 24° |
| 2026-04-29 20:51 | -16.97597 | -40.58623 | 37038 ft | 466 kts | 24° |
| 2026-04-29 20:51 | -16.94634 | -40.57304 | 37040 ft | 460 kts | 24° |
| 2026-04-29 20:52 | -16.88701 | -40.54670 | 37047 ft | 457 kts | 24° |
| 2026-04-29 20:52 | -16.82881 | -40.52094 | 37049 ft | 457 kts | 24° |
| 2026-04-29 20:53 | -16.77036 | -40.49505 | 37051 ft | 456 kts | 24° |
| 2026-04-29 20:53 | -16.71246 | -40.46931 | 37056 ft | 457 kts | 24° |
| 2026-04-29 20:54 | -16.62547 | -40.43073 | 37061 ft | 457 kts | 24° |
| 2026-04-29 20:55 | -16.56728 | -40.40498 | 37067 ft | 457 kts | 24° |
| 2026-04-29 20:55 | -16.50882 | -40.37917 | 37069 ft | 457 kts | 24° |
| 2026-04-29 20:56 | -16.45048 | -40.35345 | 37069 ft | 457 kts | 24° |
| 2026-04-29 20:56 | -16.39161 | -40.32741 | 37065 ft | 457 kts | 24° |
| 2026-04-29 20:57 | -16.33338 | -40.30166 | 37068 ft | 456 kts | 24° |
| 2026-04-29 20:57 | -16.27476 | -40.27572 | 37065 ft | 456 kts | 24° |
| 2026-04-29 20:58 | -16.21831 | -40.25082 | 37054 ft | 456 kts | 24° |
| 2026-04-29 20:58 | -16.16053 | -40.22540 | 37059 ft | 455 kts | 24° |
| 2026-04-29 20:59 | -16.10227 | -40.19978 | 37058 ft | 455 kts | 24° |
| 2026-04-29 20:59 | -16.04494 | -40.17454 | 37056 ft | 454 kts | 24° |
| 2026-04-29 21:00 | -15.98645 | -40.14890 | 37054 ft | 454 kts | 24° |
| 2026-04-29 21:00 | -15.93137 | -40.12464 | 37055 ft | 454 kts | 24° |
| 2026-04-29 21:01 | -15.87763 | -40.10104 | 37055 ft | 454 kts | 24° |
| 2026-04-29 21:01 | -15.82644 | -40.07860 | 37081 ft | 453 kts | 24° |
| 2026-04-29 21:02 | -15.77303 | -40.05514 | 37068 ft | 453 kts | 24° |
| 2026-04-29 21:02 | -15.71664 | -40.03040 | 37064 ft | 453 kts | 24° |
| 2026-04-29 21:03 | -15.66447 | -40.00756 | 37100 ft | 452 kts | 24° |
| 2026-04-29 21:03 | -15.60820 | -39.98286 | 37021 ft | 449 kts | 24° |
| 2026-04-29 21:04 | -15.55050 | -39.95755 | 37007 ft | 450 kts | 24° |
| 2026-04-29 21:04 | -15.49394 | -39.93286 | 37012 ft | 451 kts | 24° |
| 2026-04-29 21:05 | -15.43879 | -39.90883 | 37018 ft | 452 kts | 24° |
| 2026-04-29 21:05 | -15.38311 | -39.88446 | 37028 ft | 452 kts | 24° |
| 2026-04-29 21:06 | -15.32607 | -39.85955 | 37038 ft | 452 kts | 24° |
| 2026-04-29 21:06 | -15.26995 | -39.83508 | 37042 ft | 452 kts | 24° |
| 2026-04-29 21:07 | -15.21409 | -39.81070 | 37043 ft | 452 kts | 24° |
| 2026-04-29 21:07 | -15.15704 | -39.78587 | 37044 ft | 452 kts | 24° |
| 2026-04-29 21:08 | -15.10094 | -39.76151 | 37011 ft | 452 kts | 24° |
| 2026-04-29 21:08 | -15.04606 | -39.73763 | 37033 ft | 453 kts | 24° |
| 2026-04-29 21:09 | -14.99855 | -39.71683 | 37041 ft | 452 kts | 24° |
| 2026-04-29 21:09 | -14.95148 | -39.69022 | 37060 ft | 451 kts | 30° |
| 2026-04-29 21:10 | -14.89668 | -39.66410 | 37047 ft | 450 kts | 26° |
| 2026-04-29 21:10 | -14.83975 | -39.63693 | 37040 ft | 450 kts | 27° |
| 2026-04-29 21:11 | -14.78378 | -39.60835 | 37038 ft | 450 kts | 28° |
| 2026-04-29 21:11 | -14.72800 | -39.57922 | 37038 ft | 450 kts | 28° |
| 2026-04-29 21:12 | -14.67204 | -39.55034 | 37009 ft | 451 kts | 28° |
| 2026-04-29 21:12 | -14.64388 | -39.53597 | 36635 ft | 451 kts | 28° |
| 2026-04-29 21:12 | -14.61551 | -39.52154 | 36070 ft | 449 kts | 27° |
| 2026-04-29 21:12 | -14.58782 | -39.50746 | 35561 ft | 447 kts | 28° |
| 2026-04-29 21:13 | -14.55982 | -39.49320 | 35034 ft | 445 kts | 28° |
| 2026-04-29 21:13 | -14.53196 | -39.47897 | 34498 ft | 444 kts | 28° |
| 2026-04-29 21:13 | -14.50460 | -39.46498 | 33957 ft | 443 kts | 28° |
| 2026-04-29 21:13 | -14.47688 | -39.45082 | 33385 ft | 442 kts | 28° |
| 2026-04-29 21:14 | -14.44952 | -39.43684 | 32863 ft | 439 kts | 28° |
| 2026-04-29 21:14 | -14.42214 | -39.42289 | 32334 ft | 437 kts | 27° |
| 2026-04-29 21:14 | -14.39487 | -39.40903 | 31819 ft | 435 kts | 27° |
| 2026-04-29 21:14 | -14.36883 | -39.39581 | 31322 ft | 433 kts | 27° |
| 2026-04-29 21:15 | -14.34224 | -39.38227 | 30823 ft | 431 kts | 27° |
| 2026-04-29 21:15 | -14.31535 | -39.36855 | 30324 ft | 428 kts | 27° |
| 2026-04-29 21:15 | -14.28866 | -39.35496 | 29803 ft | 426 kts | 27° |
| 2026-04-29 21:15 | -14.26220 | -39.34148 | 29299 ft | 422 kts | 27° |
| 2026-04-29 21:16 | -14.23620 | -39.32823 | 28835 ft | 417 kts | 27° |
| 2026-04-29 21:16 | -14.21024 | -39.31502 | 28386 ft | 412 kts | 28° |
| 2026-04-29 21:16 | -14.18477 | -39.30206 | 27939 ft | 408 kts | 28° |
| 2026-04-29 21:16 | -14.15924 | -39.28905 | 27489 ft | 404 kts | 28° |
| 2026-04-29 21:17 | -14.13436 | -39.27663 | 27096 ft | 399 kts | 27° |
| 2026-04-29 21:17 | -14.10901 | -39.26477 | 26730 ft | 394 kts | 25° |
| 2026-04-29 21:17 | -14.08418 | -39.25409 | 26384 ft | 388 kts | 24° |
| 2026-04-29 21:17 | -14.05898 | -39.24437 | 26051 ft | 383 kts | 21° |
| 2026-04-29 21:18 | -14.03392 | -39.23538 | 25740 ft | 377 kts | 21° |
| 2026-04-29 21:18 | -14.00939 | -39.22685 | 25410 ft | 372 kts | 21° |
| 2026-04-29 21:18 | -13.98536 | -39.21637 | 24748 ft | 376 kts | 27° |
| 2026-04-29 21:18 | -13.96163 | -39.20465 | 24129 ft | 378 kts | 29° |
| 2026-04-29 21:19 | -13.93834 | -39.19206 | 23392 ft | 384 kts | 31° |
| 2026-04-29 21:19 | -13.91520 | -39.17883 | 23047 ft | 377 kts | 32° |
| 2026-04-29 21:19 | -13.89247 | -39.16556 | 22521 ft | 375 kts | 32° |
| 2026-04-29 21:19 | -13.86966 | -39.15224 | 22015 ft | 373 kts | 32° |
| 2026-04-29 21:20 | -13.84732 | -39.13931 | 21496 ft | 372 kts | 32° |
| 2026-04-29 21:20 | -13.82488 | -39.12645 | 21108 ft | 367 kts | 32° |
| 2026-04-29 21:20 | -13.80257 | -39.11376 | 20687 ft | 364 kts | 31° |
| 2026-04-29 21:20 | -13.78047 | -39.10129 | 20258 ft | 361 kts | 31° |
| 2026-04-29 21:21 | -13.75846 | -39.08890 | 19817 ft | 360 kts | 31° |
| 2026-04-29 21:21 | -13.73659 | -39.07658 | 19396 ft | 358 kts | 31° |
| 2026-04-29 21:21 | -13.71684 | -39.06547 | 19023 ft | 356 kts | 31° |
| 2026-04-29 21:21 | -13.69518 | -39.05358 | 18625 ft | 353 kts | 30° |
| 2026-04-29 21:22 | -13.67546 | -39.04349 | 18671 ft | 293 kts | 29° |
| 2026-04-29 21:22 | -13.65708 | -39.03461 | 17720 ft | 299 kts | 28° |
| 2026-04-29 21:22 | -13.63865 | -39.02618 | 17452 ft | 286 kts | 27° |
| 2026-04-29 21:22 | -13.61980 | -39.01795 | 16254 ft | 304 kts | 26° |
| 2026-04-29 21:23 | -13.60083 | -39.01023 | 16194 ft | 283 kts | 24° |
| 2026-04-29 21:23 | -13.58282 | -39.00365 | 16119 ft | 269 kts | 23° |
| 2026-04-29 21:23 | -13.56569 | -38.99673 | 15935 ft | 258 kts | 28° |
| 2026-04-29 21:23 | -13.54963 | -38.98859 | 15575 ft | 256 kts | 31° |
| 2026-04-29 21:24 | -13.53380 | -38.98015 | 14953 ft | 267 kts | 31° |
| 2026-04-29 21:24 | -13.51677 | -38.97129 | 14339 ft | 276 kts | 30° |
| 2026-04-29 21:24 | -13.49949 | -38.96295 | 13967 ft | 273 kts | 26° |
| 2026-04-29 21:24 | -13.48226 | -38.95601 | 13743 ft | 255 kts | 22° |
| 2026-04-29 21:25 | -13.46582 | -38.95132 | 13460 ft | 238 kts | 18° |
| 2026-04-29 21:25 | -13.45001 | -38.94722 | 13129 ft | 233 kts | 21° |
| 2026-04-29 21:25 | -13.43479 | -38.94172 | 12813 ft | 237 kts | 27° |
| 2026-04-29 21:25 | -13.41803 | -38.93496 | 12429 ft | 292 kts | 24° |
| 2026-04-29 21:26 | -13.39729 | -38.92703 | 12453 ft | 336 kts | 22° |
| 2026-04-29 21:26 | -13.37540 | -38.91970 | 13134 ft | 321 kts | 19° |
| 2026-04-29 21:26 | -13.35424 | -38.91333 | 13230 ft | 333 kts | 24° |
| 2026-04-29 21:26 | -13.33142 | -38.90256 | 12655 ft | 385 kts | 27° |
| 2026-04-29 21:27 | -13.31446 | -38.89424 | 12268 ft | 416 kts | 27° |
| 2026-04-29 21:27 | -13.27901 | -38.87667 | 12967 ft | 422 kts | 28° |
| 2026-04-29 21:27 | -13.25331 | -38.86403 | 14090 ft | 389 kts | 28° |
| 2026-04-29 21:27 | -13.22948 | -38.85250 | 14028 ft | 368 kts | 28° |
| 2026-04-29 21:28 | -13.20685 | -38.84162 | 13918 ft | 350 kts | 28° |
| 2026-04-29 21:28 | -13.18691 | -38.82872 | 13811 ft | 330 kts | 44° |
| 2026-04-29 21:28 | -13.17242 | -38.81131 | 13681 ft | 313 kts | 60° |
| 2026-04-29 21:28 | -13.16314 | -38.79167 | 13532 ft | 300 kts | 67° |
| 2026-04-29 21:29 | -13.15480 | -38.77244 | 12982 ft | 292 kts | 68° |
| 2026-04-29 21:29 | -13.14666 | -38.75367 | 12231 ft | 289 kts | 68° |
| 2026-04-29 21:29 | -13.13844 | -38.73474 | 11476 ft | 288 kts | 68° |
| 2026-04-29 21:29 | -13.13038 | -38.71625 | 10742 ft | 286 kts | 68° |
| 2026-04-29 21:30 | -13.12222 | -38.69762 | 9995 ft | 285 kts | 68° |
| 2026-04-29 21:30 | -13.11410 | -38.67910 | 9202 ft | 283 kts | 68° |
| 2026-04-29 21:30 | -13.10606 | -38.66066 | 8426 ft | 280 kts | 68° |
| 2026-04-29 21:30 | -13.09826 | -38.64271 | 7671 ft | 276 kts | 69° |
| 2026-04-29 21:31 | -13.09045 | -38.62473 | 6909 ft | 272 kts | 69° |
| 2026-04-29 21:31 | -13.08296 | -38.60755 | 6427 ft | 260 kts | 69° |
| 2026-04-29 21:31 | -13.07576 | -38.59110 | 6241 ft | 243 kts | 69° |
| 2026-04-29 21:31 | -13.06899 | -38.57564 | 5974 ft | 237 kts | 70° |
| 2026-04-29 21:32 | -13.06233 | -38.56033 | 5483 ft | 232 kts | 69° |
| 2026-04-29 21:32 | -13.05577 | -38.54520 | 4890 ft | 231 kts | 69° |
| 2026-04-29 21:32 | -13.04850 | -38.53072 | 4278 ft | 232 kts | 56° |
| 2026-04-29 21:32 | -13.03640 | -38.51979 | 3717 ft | 237 kts | 32° |
| 2026-04-29 21:33 | -13.02604 | -38.51578 | 3478 ft | 241 kts | 15° |
| 2026-04-29 21:33 | -13.00396 | -38.51232 | 2999 ft | 242 kts | 11° |
| 2026-04-29 21:33 | -12.98730 | -38.50983 | 2720 ft | 240 kts | 11° |
| 2026-04-29 21:33 | -12.97091 | -38.50692 | 2553 ft | 236 kts | 19° |
| 2026-04-29 21:34 | -12.95676 | -38.49995 | 2501 ft | 219 kts | 40° |
| 2026-04-29 21:34 | -12.94939 | -38.49328 | 2512 ft | 207 kts | 51° |
| 2026-04-29 21:34 | -12.94166 | -38.48153 | 2515 ft | 191 kts | 69° |
| 2026-04-29 21:34 | -12.93780 | -38.46879 | 2460 ft | 184 kts | 81° |
| 2026-04-29 21:35 | -12.93528 | -38.45614 | 2329 ft | 179 kts | 81° |
| 2026-04-29 21:35 | -12.93287 | -38.44401 | 2100 ft | 169 kts | 81° |
| 2026-04-29 21:35 | -12.93058 | -38.43262 | 1903 ft | 152 kts | 81° |
| 2026-04-29 21:35 | -12.92866 | -38.42299 | 1712 ft | 130 kts | 81° |
| 2026-04-29 21:36 | -12.92689 | -38.41419 | 1481 ft | 121 kts | 82° |
| 2026-04-29 21:36 | -12.92523 | -38.40591 | 1312 ft | 117 kts | 81° |
| 2026-04-29 21:36 | -12.92366 | -38.39794 | 1185 ft | 114 kts | 81° |
| 2026-04-29 21:36 | -12.92204 | -38.38993 | 1064 ft | 115 kts | 81° |
| 2026-04-29 21:37 | -12.92040 | -38.38181 | 895 ft | 116 kts | 81° |
| 2026-04-29 21:37 | -12.91884 | -38.37378 | 765 ft | 115 kts | 81° |
| 2026-04-29 21:37 | -12.91721 | -38.36573 | 648 ft | 114 kts | 82° |
| 2026-04-29 21:37 | -12.91562 | -38.35776 | 480 ft | 115 kts | 80° |
| 2026-04-29 21:38 | -12.91398 | -38.34969 | 332 ft | 116 kts | 82° |
| 2026-04-29 21:38 | -12.91245 | -38.34173 | 175 ft | 114 kts | 81° |
| 2026-04-29 21:38 | -12.91083 | -38.33369 | 43 ft | 114 kts | 81° |
| 2026-04-29 21:38 | -12.90949 | -38.32708 | 35 ft | 61 kts | 78° |
| 2026-04-29 21:39 | -12.90928 | -38.32541 | 38 ft | 7 kts | 148° |
| 2026-04-29 21:39 | -12.90974 | -38.32550 | 38 ft | 7 kts | 189° |
| 2026-04-29 21:39 | -12.91033 | -38.32546 | 36 ft | 9 kts | 172° |
| 2026-04-29 21:39 | -12.91080 | -38.32582 | 35 ft | 10 kts | 259° |
| 2026-04-29 21:40 | -12.91102 | -38.32686 | 34 ft | 19 kts | 258° |
| 2026-04-29 21:40 | -12.91130 | -38.32825 | 32 ft | 20 kts | 258° |
| 2026-04-29 21:40 | -12.91158 | -38.32971 | 30 ft | 21 kts | 259° |
| 2026-04-29 21:40 | -12.91187 | -38.33108 | 28 ft | 17 kts | 257° |
| 2026-04-29 21:41 | -12.91231 | -38.33178 | 27 ft | 11 kts | 190° |
| 2026-04-29 21:41 | -12.91332 | -38.33161 | 27 ft | 18 kts | 168° |
| 2026-04-29 21:41 | -12.91472 | -38.33147 | 31 ft | 22 kts | 202° |
| 2026-04-29 21:41 | -12.91540 | -38.33282 | 25 ft | 19 kts | 261° |
| 2026-04-29 21:42 | -12.91557 | -38.33386 | 25 ft | 12 kts | 258° |
| 2026-04-29 21:42 | -12.91541 | -38.33408 | 28 ft | 6 kts | 339° |
| 2026-04-29 21:42 | -12.91508 | -38.33413 | 28 ft | 4 kts | 351° |
| 2026-04-29 21:42 | -12.91498 | -38.33415 | 31 ft | 0 kts | 351° |